sensor_id;sensor_type;location;lat;lon;timestamp;temperature;humidity
3628;DHT22;1830;49.000;12.074;2022-07-29T00:00:06;21.80;91.60
3628;DHT22;1830;49.000;12.074;2022-07-29T00:02:34;21.80;91.30
3628;DHT22;1830;49.000;12.074;2022-07-29T00:05:00;21.80;91.40
3628;DHT22;1830;49.000;12.074;2022-07-29T00:07:29;21.90;91.60
3628;DHT22;1830;49.000;12.074;2022-07-29T00:09:56;21.80;91.80
3628;DHT22;1830;49.000;12.074;2022-07-29T00:12:24;21.80;91.80
3628;DHT22;1830;49.000;12.074;2022-07-29T00:14:52;21.90;91.70
3628;DHT22;1830;49.000;12.074;2022-07-29T00:17:18;21.80;91.70
3628;DHT22;1830;49.000;12.074;2022-07-29T00:19:45;21.80;91.60
3628;DHT22;1830;49.000;12.074;2022-07-29T00:22:12;21.80;91.40
3628;DHT22;1830;49.000;12.074;2022-07-29T00:24:40;21.70;91.30
3628;DHT22;1830;49.000;12.074;2022-07-29T00:27:07;21.70;91.40
3628;DHT22;1830;49.000;12.074;2022-07-29T00:29:34;21.70;91.50
3628;DHT22;1830;49.000;12.074;2022-07-29T00:32:01;21.70;91.50
3628;DHT22;1830;49.000;12.074;2022-07-29T00:34:28;21.70;92.00
3628;DHT22;1830;49.000;12.074;2022-07-29T00:37:12;21.70;92.10
3628;DHT22;1830;49.000;12.074;2022-07-29T00:39:40;21.70;92.10
3628;DHT22;1830;49.000;12.074;2022-07-29T00:42:07;21.60;92.10
3628;DHT22;1830;49.000;12.074;2022-07-29T00:44:36;21.60;92.20
3628;DHT22;1830;49.000;12.074;2022-07-29T00:47:03;21.60;92.50
3628;DHT22;1830;49.000;12.074;2022-07-29T00:49:30;21.50;92.60
3628;DHT22;1830;49.000;12.074;2022-07-29T00:51:57;21.60;92.40
3628;DHT22;1830;49.000;12.074;2022-07-29T00:54:24;21.50;92.70
3628;DHT22;1830;49.000;12.074;2022-07-29T00:56:53;21.50;92.70
3628;DHT22;1830;49.000;12.074;2022-07-29T00:59:20;21.50;92.50
3628;DHT22;1830;49.000;12.074;2022-07-29T01:01:47;21.40;92.60
3628;DHT22;1830;49.000;12.074;2022-07-29T01:04:13;21.40;92.80
3628;DHT22;1830;49.000;12.074;2022-07-29T01:06:40;21.30;93.10
3628;DHT22;1830;49.000;12.074;2022-07-29T01:09:07;21.30;93.10
3628;DHT22;1830;49.000;12.074;2022-07-29T01:11:36;21.20;93.20
3628;DHT22;1830;49.000;12.074;2022-07-29T01:14:07;21.10;93.50
3628;DHT22;1830;49.000;12.074;2022-07-29T01:16:39;21.10;93.50
3628;DHT22;1830;49.000;12.074;2022-07-29T01:19:20;21.10;93.40
3628;DHT22;1830;49.000;12.074;2022-07-29T01:21:53;21.10;93.60
3628;DHT22;1830;49.000;12.074;2022-07-29T01:24:39;21.00;93.80
3628;DHT22;1830;49.000;12.074;2022-07-29T01:27:22;21.00;94.00
3628;DHT22;1830;49.000;12.074;2022-07-29T01:29:55;20.90;93.80
3628;DHT22;1830;49.000;12.074;2022-07-29T01:32:26;20.90;94.00
3628;DHT22;1830;49.000;12.074;2022-07-29T01:34:58;20.90;94.20
3628;DHT22;1830;49.000;12.074;2022-07-29T01:37:31;20.90;94.00
3628;DHT22;1830;49.000;12.074;2022-07-29T01:40:00;20.80;93.80
3628;DHT22;1830;49.000;12.074;2022-07-29T01:42:31;20.80;93.80
3628;DHT22;1830;49.000;12.074;2022-07-29T01:45:08;20.70;94.30
3628;DHT22;1830;49.000;12.074;2022-07-29T01:47:40;20.80;94.40
3628;DHT22;1830;49.000;12.074;2022-07-29T01:50:13;20.70;94.40
3628;DHT22;1830;49.000;12.074;2022-07-29T01:52:44;20.70;94.20
3628;DHT22;1830;49.000;12.074;2022-07-29T01:55:16;20.70;94.00
3628;DHT22;1830;49.000;12.074;2022-07-29T01:57:46;20.60;94.10
3628;DHT22;1830;49.000;12.074;2022-07-29T02:00:16;20.60;94.40
3628;DHT22;1830;49.000;12.074;2022-07-29T02:02:46;20.60;95.00
3628;DHT22;1830;49.000;12.074;2022-07-29T02:05:15;20.60;95.10
3628;DHT22;1830;49.000;12.074;2022-07-29T02:07:44;20.50;95.40
3628;DHT22;1830;49.000;12.074;2022-07-29T02:10:13;20.50;95.50
3628;DHT22;1830;49.000;12.074;2022-07-29T02:12:42;20.50;95.30
3628;DHT22;1830;49.000;12.074;2022-07-29T02:15:11;20.50;95.30
3628;DHT22;1830;49.000;12.074;2022-07-29T02:17:42;20.50;95.60
3628;DHT22;1830;49.000;12.074;2022-07-29T02:20:11;20.50;95.70
3628;DHT22;1830;49.000;12.074;2022-07-29T02:22:39;20.40;95.80
3628;DHT22;1830;49.000;12.074;2022-07-29T02:25:07;20.40;96.00
3628;DHT22;1830;49.000;12.074;2022-07-29T02:27:35;20.40;96.30
3628;DHT22;1830;49.000;12.074;2022-07-29T02:30:05;20.30;96.70
3628;DHT22;1830;49.000;12.074;2022-07-29T02:32:34;20.30;96.60
3628;DHT22;1830;49.000;12.074;2022-07-29T02:35:04;20.20;96.40
3628;DHT22;1830;49.000;12.074;2022-07-29T02:37:32;20.20;96.70
3628;DHT22;1830;49.000;12.074;2022-07-29T02:39:59;20.20;96.80
3628;DHT22;1830;49.000;12.074;2022-07-29T02:42:27;20.20;96.80
3628;DHT22;1830;49.000;12.074;2022-07-29T02:44:55;20.20;96.70
3628;DHT22;1830;49.000;12.074;2022-07-29T02:47:24;20.30;96.50
3628;DHT22;1830;49.000;12.074;2022-07-29T02:49:56;20.20;96.30
3628;DHT22;1830;49.000;12.074;2022-07-29T02:52:27;20.30;96.40
3628;DHT22;1830;49.000;12.074;2022-07-29T02:55:01;20.20;96.40
3628;DHT22;1830;49.000;12.074;2022-07-29T02:57:32;20.20;96.50
3628;DHT22;1830;49.000;12.074;2022-07-29T03:00:04;20.10;96.80
3628;DHT22;1830;49.000;12.074;2022-07-29T03:02:34;20.20;96.70
3628;DHT22;1830;49.000;12.074;2022-07-29T03:05:03;20.30;96.60
3628;DHT22;1830;49.000;12.074;2022-07-29T03:07:33;20.30;96.60
3628;DHT22;1830;49.000;12.074;2022-07-29T03:10:02;20.30;96.80
3628;DHT22;1830;49.000;12.074;2022-07-29T03:12:30;20.20;96.60
3628;DHT22;1830;49.000;12.074;2022-07-29T03:14:57;20.20;96.60
3628;DHT22;1830;49.000;12.074;2022-07-29T03:17:25;20.30;96.50
3628;DHT22;1830;49.000;12.074;2022-07-29T03:19:52;20.30;96.50
3628;DHT22;1830;49.000;12.074;2022-07-29T03:22:19;20.30;96.30
3628;DHT22;1830;49.000;12.074;2022-07-29T03:24:48;20.20;96.50
3628;DHT22;1830;49.000;12.074;2022-07-29T03:27:15;20.20;96.60
3628;DHT22;1830;49.000;12.074;2022-07-29T03:29:41;20.20;96.40
3628;DHT22;1830;49.000;12.074;2022-07-29T03:32:08;20.20;96.30
3628;DHT22;1830;49.000;12.074;2022-07-29T03:34:36;20.20;96.10
3628;DHT22;1830;49.000;12.074;2022-07-29T03:37:04;20.20;96.50
3628;DHT22;1830;49.000;12.074;2022-07-29T03:39:35;20.20;96.80
3628;DHT22;1830;49.000;12.074;2022-07-29T03:42:07;20.10;96.40
3628;DHT22;1830;49.000;12.074;2022-07-29T03:44:35;20.20;96.60
3628;DHT22;1830;49.000;12.074;2022-07-29T03:47:04;20.20;96.70
3628;DHT22;1830;49.000;12.074;2022-07-29T03:49:35;20.10;96.70
3628;DHT22;1830;49.000;12.074;2022-07-29T03:52:03;20.10;96.80
3628;DHT22;1830;49.000;12.074;2022-07-29T03:54:31;20.10;97.00
3628;DHT22;1830;49.000;12.074;2022-07-29T03:56:59;20.10;97.00
3628;DHT22;1830;49.000;12.074;2022-07-29T03:59:30;20.10;97.30
3628;DHT22;1830;49.000;12.074;2022-07-29T04:02:00;20.10;97.40
3628;DHT22;1830;49.000;12.074;2022-07-29T04:04:27;20.10;97.40
3628;DHT22;1830;49.000;12.074;2022-07-29T04:06:54;20.00;97.60
3628;DHT22;1830;49.000;12.074;2022-07-29T04:09:20;20.00;97.60
3628;DHT22;1830;49.000;12.074;2022-07-29T04:11:47;19.90;97.60
3628;DHT22;1830;49.000;12.074;2022-07-29T04:14:14;19.80;97.50
3628;DHT22;1830;49.000;12.074;2022-07-29T04:16:42;19.80;98.20
3628;DHT22;1830;49.000;12.074;2022-07-29T04:19:09;19.70;99.10
3628;DHT22;1830;49.000;12.074;2022-07-29T04:21:37;19.70;99.40
3628;DHT22;1830;49.000;12.074;2022-07-29T04:24:05;19.80;99.40
3628;DHT22;1830;49.000;12.074;2022-07-29T04:26:32;19.80;99.30
3628;DHT22;1830;49.000;12.074;2022-07-29T04:28:59;19.80;99.30
3628;DHT22;1830;49.000;12.074;2022-07-29T04:31:26;19.70;99.20
3628;DHT22;1830;49.000;12.074;2022-07-29T04:33:54;19.80;99.00
3628;DHT22;1830;49.000;12.074;2022-07-29T04:36:21;19.80;99.00
3628;DHT22;1830;49.000;12.074;2022-07-29T04:38:47;19.80;99.20
3628;DHT22;1830;49.000;12.074;2022-07-29T04:41:14;19.70;99.40
3628;DHT22;1830;49.000;12.074;2022-07-29T04:43:41;19.70;99.40
3628;DHT22;1830;49.000;12.074;2022-07-29T04:46:08;19.70;99.30
3628;DHT22;1830;49.000;12.074;2022-07-29T04:48:35;19.80;99.30
3628;DHT22;1830;49.000;12.074;2022-07-29T04:51:03;19.80;99.00
3628;DHT22;1830;49.000;12.074;2022-07-29T04:53:30;19.80;98.60
3628;DHT22;1830;49.000;12.074;2022-07-29T04:55:57;19.80;98.40
3628;DHT22;1830;49.000;12.074;2022-07-29T04:58:24;19.70;98.50
3628;DHT22;1830;49.000;12.074;2022-07-29T05:00:51;19.70;98.60
3628;DHT22;1830;49.000;12.074;2022-07-29T05:03:18;19.70;98.60
3628;DHT22;1830;49.000;12.074;2022-07-29T05:05:45;19.70;98.70
3628;DHT22;1830;49.000;12.074;2022-07-29T05:08:13;19.70;98.60
3628;DHT22;1830;49.000;12.074;2022-07-29T05:10:40;19.70;98.40
3628;DHT22;1830;49.000;12.074;2022-07-29T05:13:07;19.60;98.00
3628;DHT22;1830;49.000;12.074;2022-07-29T05:15:34;19.70;98.10
3628;DHT22;1830;49.000;12.074;2022-07-29T05:18:01;19.60;98.10
3628;DHT22;1830;49.000;12.074;2022-07-29T05:20:29;19.60;98.40
3628;DHT22;1830;49.000;12.074;2022-07-29T05:22:57;19.50;98.50
3628;DHT22;1830;49.000;12.074;2022-07-29T05:25:26;19.60;98.70
3628;DHT22;1830;49.000;12.074;2022-07-29T05:27:56;19.60;98.90
3628;DHT22;1830;49.000;12.074;2022-07-29T05:30:23;19.60;99.10
3628;DHT22;1830;49.000;12.074;2022-07-29T05:32:50;19.70;99.00
3628;DHT22;1830;49.000;12.074;2022-07-29T05:35:16;19.70;98.80
3628;DHT22;1830;49.000;12.074;2022-07-29T05:37:43;19.70;98.80
3628;DHT22;1830;49.000;12.074;2022-07-29T05:40:10;19.60;98.90
3628;DHT22;1830;49.000;12.074;2022-07-29T05:42:38;19.70;98.60
3628;DHT22;1830;49.000;12.074;2022-07-29T05:45:06;19.70;98.60
3628;DHT22;1830;49.000;12.074;2022-07-29T05:47:33;19.70;98.40
3628;DHT22;1830;49.000;12.074;2022-07-29T05:50:01;19.70;98.20
3628;DHT22;1830;49.000;12.074;2022-07-29T05:52:27;19.70;98.40
3628;DHT22;1830;49.000;12.074;2022-07-29T05:54:54;19.70;98.60
3628;DHT22;1830;49.000;12.074;2022-07-29T05:57:22;19.70;98.40
3628;DHT22;1830;49.000;12.074;2022-07-29T05:59:53;19.80;98.10
3628;DHT22;1830;49.000;12.074;2022-07-29T06:02:20;19.80;98.10
3628;DHT22;1830;49.000;12.074;2022-07-29T06:04:49;19.80;97.90
3628;DHT22;1830;49.000;12.074;2022-07-29T06:07:16;19.90;97.60
3628;DHT22;1830;49.000;12.074;2022-07-29T06:09:43;19.90;97.30
3628;DHT22;1830;49.000;12.074;2022-07-29T06:12:09;19.90;97.40
3628;DHT22;1830;49.000;12.074;2022-07-29T06:14:36;19.90;97.20
3628;DHT22;1830;49.000;12.074;2022-07-29T06:17:05;20.00;97.40
3628;DHT22;1830;49.000;12.074;2022-07-29T06:19:34;20.00;97.40
3628;DHT22;1830;49.000;12.074;2022-07-29T06:22:02;20.00;97.20
3628;DHT22;1830;49.000;12.074;2022-07-29T06:24:28;20.00;97.40
3628;DHT22;1830;49.000;12.074;2022-07-29T06:26:56;20.10;97.50
3628;DHT22;1830;49.000;12.074;2022-07-29T06:29:22;20.10;97.50
3628;DHT22;1830;49.000;12.074;2022-07-29T06:31:50;20.20;97.70
3628;DHT22;1830;49.000;12.074;2022-07-29T06:34:18;20.20;97.90
3628;DHT22;1830;49.000;12.074;2022-07-29T06:36:44;20.30;97.30
3628;DHT22;1830;49.000;12.074;2022-07-29T06:39:11;20.30;96.80
3628;DHT22;1830;49.000;12.074;2022-07-29T06:41:38;20.30;97.00
3628;DHT22;1830;49.000;12.074;2022-07-29T06:44:07;20.30;97.10
3628;DHT22;1830;49.000;12.074;2022-07-29T06:46:34;20.40;96.70
3628;DHT22;1830;49.000;12.074;2022-07-29T06:49:02;20.40;96.40
3628;DHT22;1830;49.000;12.074;2022-07-29T06:51:30;20.40;96.70
3628;DHT22;1830;49.000;12.074;2022-07-29T06:53:57;20.50;96.10
3628;DHT22;1830;49.000;12.074;2022-07-29T06:56:24;20.60;96.20
3628;DHT22;1830;49.000;12.074;2022-07-29T06:58:51;20.70;96.20
3628;DHT22;1830;49.000;12.074;2022-07-29T07:01:18;20.70;95.80
3628;DHT22;1830;49.000;12.074;2022-07-29T07:03:45;20.80;95.60
3628;DHT22;1830;49.000;12.074;2022-07-29T07:06:11;20.90;95.70
3628;DHT22;1830;49.000;12.074;2022-07-29T07:08:40;20.90;95.70
3628;DHT22;1830;49.000;12.074;2022-07-29T07:11:06;21.00;95.80
3628;DHT22;1830;49.000;12.074;2022-07-29T07:13:33;21.10;95.90
3628;DHT22;1830;49.000;12.074;2022-07-29T07:16:00;21.10;95.80
3628;DHT22;1830;49.000;12.074;2022-07-29T07:18:27;21.10;96.10
3628;DHT22;1830;49.000;12.074;2022-07-29T07:20:54;21.20;96.20
3628;DHT22;1830;49.000;12.074;2022-07-29T07:23:21;21.20;96.00
3628;DHT22;1830;49.000;12.074;2022-07-29T07:25:49;21.20;95.90
3628;DHT22;1830;49.000;12.074;2022-07-29T07:28:16;21.20;95.80
3628;DHT22;1830;49.000;12.074;2022-07-29T07:30:44;21.20;96.10
3628;DHT22;1830;49.000;12.074;2022-07-29T07:33:12;21.30;96.30
3628;DHT22;1830;49.000;12.074;2022-07-29T07:35:39;21.30;96.10
3628;DHT22;1830;49.000;12.074;2022-07-29T07:38:06;21.40;96.30
3628;DHT22;1830;49.000;12.074;2022-07-29T07:40:33;21.50;96.30
3628;DHT22;1830;49.000;12.074;2022-07-29T07:43:01;21.50;96.30
3628;DHT22;1830;49.000;12.074;2022-07-29T07:45:28;21.50;96.20
3628;DHT22;1830;49.000;12.074;2022-07-29T07:47:55;21.60;95.90
3628;DHT22;1830;49.000;12.074;2022-07-29T07:50:21;21.60;95.90
3628;DHT22;1830;49.000;12.074;2022-07-29T07:52:49;21.60;95.80
3628;DHT22;1830;49.000;12.074;2022-07-29T07:55:17;21.60;95.80
3628;DHT22;1830;49.000;12.074;2022-07-29T07:57:44;21.70;96.00
3628;DHT22;1830;49.000;12.074;2022-07-29T08:00:13;21.80;96.40
3628;DHT22;1830;49.000;12.074;2022-07-29T08:02:40;21.90;96.10
3628;DHT22;1830;49.000;12.074;2022-07-29T08:05:09;21.90;95.90
3628;DHT22;1830;49.000;12.074;2022-07-29T08:07:36;22.00;95.80
3628;DHT22;1830;49.000;12.074;2022-07-29T08:10:04;22.00;95.70
3628;DHT22;1830;49.000;12.074;2022-07-29T08:12:30;22.10;95.80
3628;DHT22;1830;49.000;12.074;2022-07-29T08:14:57;22.20;95.60
3628;DHT22;1830;49.000;12.074;2022-07-29T08:17:25;22.20;95.50
3628;DHT22;1830;49.000;12.074;2022-07-29T08:19:53;22.30;95.70
3628;DHT22;1830;49.000;12.074;2022-07-29T08:22:20;22.30;95.90
3628;DHT22;1830;49.000;12.074;2022-07-29T08:24:46;22.50;96.20
3628;DHT22;1830;49.000;12.074;2022-07-29T08:27:19;22.60;95.60
3628;DHT22;1830;49.000;12.074;2022-07-29T08:29:46;22.60;95.10
3628;DHT22;1830;49.000;12.074;2022-07-29T08:32:13;22.60;94.80
3628;DHT22;1830;49.000;12.074;2022-07-29T08:34:41;22.60;94.80
3628;DHT22;1830;49.000;12.074;2022-07-29T08:37:11;22.70;94.60
3628;DHT22;1830;49.000;12.074;2022-07-29T08:39:38;22.70;94.70
3628;DHT22;1830;49.000;12.074;2022-07-29T08:42:05;22.80;94.90
3628;DHT22;1830;49.000;12.074;2022-07-29T08:44:33;22.90;95.00
3628;DHT22;1830;49.000;12.074;2022-07-29T08:47:00;22.90;95.00
3628;DHT22;1830;49.000;12.074;2022-07-29T08:49:26;23.10;94.90
3628;DHT22;1830;49.000;12.074;2022-07-29T08:51:55;23.20;94.70
3628;DHT22;1830;49.000;12.074;2022-07-29T08:54:23;23.20;94.60
3628;DHT22;1830;49.000;12.074;2022-07-29T08:56:51;23.20;94.30
3628;DHT22;1830;49.000;12.074;2022-07-29T08:59:19;23.20;94.60
3628;DHT22;1830;49.000;12.074;2022-07-29T09:01:46;23.30;94.90
3628;DHT22;1830;49.000;12.074;2022-07-29T09:04:15;23.30;94.80
3628;DHT22;1830;49.000;12.074;2022-07-29T09:06:44;23.40;95.20
3628;DHT22;1830;49.000;12.074;2022-07-29T09:09:14;23.50;95.00
3628;DHT22;1830;49.000;12.074;2022-07-29T09:11:42;23.60;94.80
3628;DHT22;1830;49.000;12.074;2022-07-29T09:14:11;23.70;94.90
3628;DHT22;1830;49.000;12.074;2022-07-29T09:16:50;23.80;94.80
3628;DHT22;1830;49.000;12.074;2022-07-29T09:19:21;23.90;95.00
3628;DHT22;1830;49.000;12.074;2022-07-29T09:21:48;23.90;94.70
3628;DHT22;1830;49.000;12.074;2022-07-29T09:24:37;24.00;95.10
3628;DHT22;1830;49.000;12.074;2022-07-29T09:27:09;24.00;94.90
3628;DHT22;1830;49.000;12.074;2022-07-29T09:29:36;24.00;94.70
3628;DHT22;1830;49.000;12.074;2022-07-29T09:32:08;24.00;94.60
3628;DHT22;1830;49.000;12.074;2022-07-29T09:34:35;24.10;94.90
3628;DHT22;1830;49.000;12.074;2022-07-29T09:37:03;24.10;94.90
3628;DHT22;1830;49.000;12.074;2022-07-29T09:39:33;24.20;95.10
3628;DHT22;1830;49.000;12.074;2022-07-29T09:42:01;24.30;94.90
3628;DHT22;1830;49.000;12.074;2022-07-29T09:44:41;24.30;94.90
3628;DHT22;1830;49.000;12.074;2022-07-29T09:47:08;24.40;94.70
3628;DHT22;1830;49.000;12.074;2022-07-29T09:49:49;24.50;94.40
3628;DHT22;1830;49.000;12.074;2022-07-29T09:52:16;24.60;94.10
3628;DHT22;1830;49.000;12.074;2022-07-29T09:54:45;24.70;93.40
3628;DHT22;1830;49.000;12.074;2022-07-29T09:57:22;24.70;93.80
3628;DHT22;1830;49.000;12.074;2022-07-29T09:59:56;24.90;93.70
3628;DHT22;1830;49.000;12.074;2022-07-29T10:02:28;24.90;93.30
3628;DHT22;1830;49.000;12.074;2022-07-29T10:04:55;24.90;93.00
3628;DHT22;1830;49.000;12.074;2022-07-29T10:07:22;24.90;93.10
3628;DHT22;1830;49.000;12.074;2022-07-29T10:09:55;25.00;92.90
3628;DHT22;1830;49.000;12.074;2022-07-29T10:12:23;25.10;93.10
3628;DHT22;1830;49.000;12.074;2022-07-29T10:14:50;25.20;93.30
3628;DHT22;1830;49.000;12.074;2022-07-29T10:17:17;25.40;93.20
3628;DHT22;1830;49.000;12.074;2022-07-29T10:19:46;25.40;92.50
3628;DHT22;1830;49.000;12.074;2022-07-29T10:22:14;25.50;92.10
3628;DHT22;1830;49.000;12.074;2022-07-29T10:24:41;25.40;91.60
3628;DHT22;1830;49.000;12.074;2022-07-29T10:27:09;25.40;91.70
3628;DHT22;1830;49.000;12.074;2022-07-29T10:29:36;25.50;92.20
3628;DHT22;1830;49.000;12.074;2022-07-29T10:32:16;25.60;91.90
3628;DHT22;1830;49.000;12.074;2022-07-29T10:34:57;25.70;91.70
3628;DHT22;1830;49.000;12.074;2022-07-29T10:37:35;25.70;91.00
3628;DHT22;1830;49.000;12.074;2022-07-29T10:40:14;25.80;91.00
3628;DHT22;1830;49.000;12.074;2022-07-29T10:43:19;25.90;90.90
3628;DHT22;1830;49.000;12.074;2022-07-29T10:45:48;25.80;90.50
3628;DHT22;1830;49.000;12.074;2022-07-29T10:48:16;25.90;90.30
3628;DHT22;1830;49.000;12.074;2022-07-29T10:50:52;25.90;90.70
3628;DHT22;1830;49.000;12.074;2022-07-29T10:53:19;25.90;90.80
3628;DHT22;1830;49.000;12.074;2022-07-29T10:55:46;26.00;90.60
3628;DHT22;1830;49.000;12.074;2022-07-29T10:58:16;25.90;90.70
3628;DHT22;1830;49.000;12.074;2022-07-29T11:00:45;26.00;90.80
3628;DHT22;1830;49.000;12.074;2022-07-29T11:03:44;26.10;91.00
3628;DHT22;1830;49.000;12.074;2022-07-29T11:06:12;26.20;91.10
3628;DHT22;1830;49.000;12.074;2022-07-29T11:08:39;26.20;91.00
3628;DHT22;1830;49.000;12.074;2022-07-29T11:11:36;26.30;90.10
3628;DHT22;1830;49.000;12.074;2022-07-29T11:14:06;26.40;90.20
3628;DHT22;1830;49.000;12.074;2022-07-29T11:17:03;26.50;90.20
3628;DHT22;1830;49.000;12.074;2022-07-29T11:19:30;26.60;90.50
3628;DHT22;1830;49.000;12.074;2022-07-29T11:21:58;26.70;90.30
3628;DHT22;1830;49.000;12.074;2022-07-29T11:24:26;26.80;89.10
3628;DHT22;1830;49.000;12.074;2022-07-29T11:27:07;26.80;87.50
3628;DHT22;1830;49.000;12.074;2022-07-29T11:29:36;26.80;86.80
3628;DHT22;1830;49.000;12.074;2022-07-29T11:32:13;26.80;87.40
3628;DHT22;1830;49.000;12.074;2022-07-29T11:34:41;26.80;88.70
3628;DHT22;1830;49.000;12.074;2022-07-29T11:37:29;26.90;89.00
3628;DHT22;1830;49.000;12.074;2022-07-29T11:40:16;26.80;87.70
3628;DHT22;1830;49.000;12.074;2022-07-29T11:42:48;27.00;89.20
3628;DHT22;1830;49.000;12.074;2022-07-29T11:45:23;27.00;89.00
3628;DHT22;1830;49.000;12.074;2022-07-29T11:47:56;27.00;89.30
3628;DHT22;1830;49.000;12.074;2022-07-29T11:50:30;27.00;88.40
3628;DHT22;1830;49.000;12.074;2022-07-29T11:52:57;26.90;88.70
3628;DHT22;1830;49.000;12.074;2022-07-29T11:55:24;27.00;89.60
3628;DHT22;1830;49.000;12.074;2022-07-29T11:57:54;27.00;89.50
3628;DHT22;1830;49.000;12.074;2022-07-29T12:00:26;27.10;90.20
3628;DHT22;1830;49.000;12.074;2022-07-29T12:02:56;27.20;90.30
3628;DHT22;1830;49.000;12.074;2022-07-29T12:05:34;27.20;88.80
3628;DHT22;1830;49.000;12.074;2022-07-29T12:08:06;27.30;89.00
3628;DHT22;1830;49.000;12.074;2022-07-29T12:10:33;27.30;89.80
3628;DHT22;1830;49.000;12.074;2022-07-29T12:13:00;27.30;89.20
3628;DHT22;1830;49.000;12.074;2022-07-29T12:15:27;27.20;89.00
3628;DHT22;1830;49.000;12.074;2022-07-29T12:17:55;27.20;88.30
3628;DHT22;1830;49.000;12.074;2022-07-29T12:20:26;27.10;88.20
3628;DHT22;1830;49.000;12.074;2022-07-29T12:22:53;27.00;88.70
3628;DHT22;1830;49.000;12.074;2022-07-29T12:25:22;27.00;88.40
3628;DHT22;1830;49.000;12.074;2022-07-29T12:27:58;27.10;88.90
3628;DHT22;1830;49.000;12.074;2022-07-29T12:30:38;27.10;88.50
3628;DHT22;1830;49.000;12.074;2022-07-29T12:33:18;27.10;87.70
3628;DHT22;1830;49.000;12.074;2022-07-29T12:35:47;27.00;87.70
3628;DHT22;1830;49.000;12.074;2022-07-29T12:38:15;27.00;88.60
3628;DHT22;1830;49.000;12.074;2022-07-29T12:40:44;27.00;89.50
3628;DHT22;1830;49.000;12.074;2022-07-29T12:43:13;26.90;89.70
3628;DHT22;1830;49.000;12.074;2022-07-29T12:45:43;27.00;89.20
3628;DHT22;1830;49.000;12.074;2022-07-29T12:48:10;27.00;88.70
3628;DHT22;1830;49.000;12.074;2022-07-29T12:50:54;27.10;89.90
3628;DHT22;1830;49.000;12.074;2022-07-29T12:53:22;27.20;89.70
3628;DHT22;1830;49.000;12.074;2022-07-29T12:55:51;27.10;88.80
3628;DHT22;1830;49.000;12.074;2022-07-29T12:58:34;27.00;88.40
3628;DHT22;1830;49.000;12.074;2022-07-29T13:01:05;27.00;87.70
3628;DHT22;1830;49.000;12.074;2022-07-29T13:03:49;27.20;88.70
3628;DHT22;1830;49.000;12.074;2022-07-29T13:06:33;27.50;87.50
3628;DHT22;1830;49.000;12.074;2022-07-29T13:09:11;27.60;86.40
3628;DHT22;1830;49.000;12.074;2022-07-29T13:11:40;27.90;85.30
3628;DHT22;1830;49.000;12.074;2022-07-29T13:14:09;28.10;85.70
3628;DHT22;1830;49.000;12.074;2022-07-29T13:16:36;28.20;84.60
3628;DHT22;1830;49.000;12.074;2022-07-29T13:19:09;28.20;84.40
3628;DHT22;1830;49.000;12.074;2022-07-29T13:21:38;28.20;83.90
3628;DHT22;1830;49.000;12.074;2022-07-29T13:24:06;28.20;84.90
3628;DHT22;1830;49.000;12.074;2022-07-29T13:26:33;28.10;84.80
3628;DHT22;1830;49.000;12.074;2022-07-29T13:29:00;28.00;85.00
3628;DHT22;1830;49.000;12.074;2022-07-29T13:31:27;27.90;83.90
3628;DHT22;1830;49.000;12.074;2022-07-29T13:33:54;27.80;84.50
3628;DHT22;1830;49.000;12.074;2022-07-29T13:36:21;27.80;84.10
3628;DHT22;1830;49.000;12.074;2022-07-29T13:38:50;27.80;84.20
3628;DHT22;1830;49.000;12.074;2022-07-29T13:41:16;27.80;83.30
3628;DHT22;1830;49.000;12.074;2022-07-29T13:43:43;27.70;83.30
3628;DHT22;1830;49.000;12.074;2022-07-29T13:46:10;27.90;84.40
3628;DHT22;1830;49.000;12.074;2022-07-29T13:48:37;28.20;83.70
3628;DHT22;1830;49.000;12.074;2022-07-29T13:51:04;28.30;83.20
3628;DHT22;1830;49.000;12.074;2022-07-29T13:53:31;28.30;82.40
3628;DHT22;1830;49.000;12.074;2022-07-29T13:56:00;28.40;82.60
3628;DHT22;1830;49.000;12.074;2022-07-29T13:58:27;28.30;83.20
3628;DHT22;1830;49.000;12.074;2022-07-29T14:00:56;28.20;81.90
3628;DHT22;1830;49.000;12.074;2022-07-29T14:03:24;28.30;82.80
3628;DHT22;1830;49.000;12.074;2022-07-29T14:05:51;28.20;81.80
3628;DHT22;1830;49.000;12.074;2022-07-29T14:08:18;28.10;81.20
3628;DHT22;1830;49.000;12.074;2022-07-29T14:10:45;28.00;80.90
3628;DHT22;1830;49.000;12.074;2022-07-29T14:13:13;27.90;81.20
3628;DHT22;1830;49.000;12.074;2022-07-29T14:15:39;27.90;80.90
3628;DHT22;1830;49.000;12.074;2022-07-29T14:18:06;27.90;81.00
3628;DHT22;1830;49.000;12.074;2022-07-29T14:20:33;27.80;82.00
3628;DHT22;1830;49.000;12.074;2022-07-29T14:23:00;27.70;82.00
3628;DHT22;1830;49.000;12.074;2022-07-29T14:25:26;27.70;82.10
3628;DHT22;1830;49.000;12.074;2022-07-29T14:27:53;27.60;82.30
3628;DHT22;1830;49.000;12.074;2022-07-29T14:30:21;27.50;82.00
3628;DHT22;1830;49.000;12.074;2022-07-29T14:32:48;27.50;81.60
3628;DHT22;1830;49.000;12.074;2022-07-29T14:35:15;27.40;81.40
3628;DHT22;1830;49.000;12.074;2022-07-29T14:37:42;27.40;82.00
3628;DHT22;1830;49.000;12.074;2022-07-29T14:40:10;27.30;83.80
3628;DHT22;1830;49.000;12.074;2022-07-29T14:42:37;27.30;83.50
3628;DHT22;1830;49.000;12.074;2022-07-29T14:45:05;27.20;82.10
3628;DHT22;1830;49.000;12.074;2022-07-29T14:47:34;27.10;87.50
3628;DHT22;1830;49.000;12.074;2022-07-29T14:50:00;27.00;88.30
3628;DHT22;1830;49.000;12.074;2022-07-29T14:52:27;26.80;90.30
3628;DHT22;1830;49.000;12.074;2022-07-29T14:54:54;26.60;91.60
3628;DHT22;1830;49.000;12.074;2022-07-29T14:57:21;26.50;91.10
3628;DHT22;1830;49.000;12.074;2022-07-29T14:59:48;26.40;91.60
3628;DHT22;1830;49.000;12.074;2022-07-29T15:02:14;26.30;93.00
3628;DHT22;1830;49.000;12.074;2022-07-29T15:04:42;26.30;91.80
3628;DHT22;1830;49.000;12.074;2022-07-29T15:07:11;26.30;92.30
3628;DHT22;1830;49.000;12.074;2022-07-29T15:09:38;26.30;92.30
3628;DHT22;1830;49.000;12.074;2022-07-29T15:12:05;26.30;92.40
3628;DHT22;1830;49.000;12.074;2022-07-29T15:14:32;26.40;91.90
3628;DHT22;1830;49.000;12.074;2022-07-29T15:16:59;26.30;92.00
3628;DHT22;1830;49.000;12.074;2022-07-29T15:19:26;26.30;92.00
3628;DHT22;1830;49.000;12.074;2022-07-29T15:21:54;26.10;91.40
3628;DHT22;1830;49.000;12.074;2022-07-29T15:24:21;26.00;91.20
3628;DHT22;1830;49.000;12.074;2022-07-29T15:26:48;26.00;91.30
3628;DHT22;1830;49.000;12.074;2022-07-29T15:29:15;26.00;91.60
3628;DHT22;1830;49.000;12.074;2022-07-29T15:31:41;25.90;91.80
3628;DHT22;1830;49.000;12.074;2022-07-29T15:34:08;26.00;91.60
3628;DHT22;1830;49.000;12.074;2022-07-29T15:36:35;26.00;91.80
3628;DHT22;1830;49.000;12.074;2022-07-29T15:39:04;26.00;90.90
3628;DHT22;1830;49.000;12.074;2022-07-29T15:41:30;26.00;90.70
3628;DHT22;1830;49.000;12.074;2022-07-29T15:43:57;26.00;90.60
3628;DHT22;1830;49.000;12.074;2022-07-29T15:46:24;26.10;91.30
3628;DHT22;1830;49.000;12.074;2022-07-29T15:49:08;26.10;91.50
3628;DHT22;1830;49.000;12.074;2022-07-29T15:51:35;26.10;91.90
3628;DHT22;1830;49.000;12.074;2022-07-29T15:54:04;26.20;92.30
3628;DHT22;1830;49.000;12.074;2022-07-29T15:56:31;26.10;92.50